sensor_id;sensor_type;location;lat;lon;timestamp;P1;durP1;ratioP1;P2;durP2;ratioP2
11084;SDS011;5596;46.826;8.650;2022-11-15T00:02:00;1.20;;;1.10;;
11084;SDS011;5596;46.826;8.650;2022-11-15T00:04:49;1.97;;;1.27;;
11084;SDS011;5596;46.826;8.650;2022-11-15T00:07:35;2.37;;;1.30;;
11084;SDS011;5596;46.826;8.650;2022-11-15T00:10:20;3.10;;;1.10;;
11084;SDS011;5596;46.826;8.650;2022-11-15T00:13:06;2.63;;;1.03;;
11084;SDS011;5596;46.826;8.650;2022-11-15T00:15:51;1.30;;;1.00;;
11084;SDS011;5596;46.826;8.650;2022-11-15T00:18:37;1.93;;;1.20;;
11084;SDS011;5596;46.826;8.650;2022-11-15T00:21:24;3.17;;;1.40;;
11084;SDS011;5596;46.826;8.650;2022-11-15T00:24:10;3.60;;;1.07;;
11084;SDS011;5596;46.826;8.650;2022-11-15T00:26:56;1.43;;;1.07;;
11084;SDS011;5596;46.826;8.650;2022-11-15T00:29:42;1.90;;;1.30;;
11084;SDS011;5596;46.826;8.650;2022-11-15T00:32:30;2.63;;;1.30;;
11084;SDS011;5596;46.826;8.650;2022-11-15T00:35:16;4.00;;;1.20;;
11084;SDS011;5596;46.826;8.650;2022-11-15T00:38:03;1.70;;;1.30;;
11084;SDS011;5596;46.826;8.650;2022-11-15T00:40:52;1.93;;;1.30;;
11084;SDS011;5596;46.826;8.650;2022-11-15T00:43:38;2.10;;;1.17;;
11084;SDS011;5596;46.826;8.650;2022-11-15T00:46:23;2.20;;;1.00;;
11084;SDS011;5596;46.826;8.650;2022-11-15T00:49:10;1.10;;;1.00;;
11084;SDS011;5596;46.826;8.650;2022-11-15T00:51:55;1.33;;;1.10;;
11084;SDS011;5596;46.826;8.650;2022-11-15T00:54:42;4.03;;;1.20;;
11084;SDS011;5596;46.826;8.650;2022-11-15T00:57:28;1.83;;;1.20;;
11084;SDS011;5596;46.826;8.650;2022-11-15T01:00:13;2.00;;;1.50;;
11084;SDS011;5596;46.826;8.650;2022-11-15T01:02:59;2.50;;;1.20;;
11084;SDS011;5596;46.826;8.650;2022-11-15T01:05:45;1.50;;;1.23;;
11084;SDS011;5596;46.826;8.650;2022-11-15T01:08:31;2.73;;;1.23;;
11084;SDS011;5596;46.826;8.650;2022-11-15T01:11:19;4.20;;;1.40;;
11084;SDS011;5596;46.826;8.650;2022-11-15T01:14:04;2.43;;;1.10;;
11084;SDS011;5596;46.826;8.650;2022-11-15T01:16:50;2.23;;;1.20;;
11084;SDS011;5596;46.826;8.650;2022-11-15T01:19:36;1.97;;;1.30;;
11084;SDS011;5596;46.826;8.650;2022-11-15T01:22:22;3.07;;;1.40;;
11084;SDS011;5596;46.826;8.650;2022-11-15T01:25:08;1.83;;;1.10;;
11084;SDS011;5596;46.826;8.650;2022-11-15T01:27:55;1.70;;;1.00;;
11084;SDS011;5596;46.826;8.650;2022-11-15T01:30:40;1.30;;;1.10;;
11084;SDS011;5596;46.826;8.650;2022-11-15T01:33:27;3.67;;;1.33;;
11084;SDS011;5596;46.826;8.650;2022-11-15T01:36:13;1.87;;;1.33;;
11084;SDS011;5596;46.826;8.650;2022-11-15T01:39:00;1.73;;;1.37;;
11084;SDS011;5596;46.826;8.650;2022-11-15T01:41:46;2.30;;;1.13;;
11084;SDS011;5596;46.826;8.650;2022-11-15T01:44:43;1.80;;;1.40;;
11084;SDS011;5596;46.826;8.650;2022-11-15T01:47:33;2.43;;;1.43;;
11084;SDS011;5596;46.826;8.650;2022-11-15T01:50:24;2.00;;;1.30;;
11084;SDS011;5596;46.826;8.650;2022-11-15T01:53:12;1.50;;;1.20;;
11084;SDS011;5596;46.826;8.650;2022-11-15T01:55:58;3.23;;;1.50;;
11084;SDS011;5596;46.826;8.650;2022-11-15T01:58:47;2.57;;;1.60;;
11084;SDS011;5596;46.826;8.650;2022-11-15T02:01:37;3.00;;;1.60;;
11084;SDS011;5596;46.826;8.650;2022-11-15T02:04:24;2.53;;;1.60;;
11084;SDS011;5596;46.826;8.650;2022-11-15T02:07:13;1.50;;;1.30;;
11084;SDS011;5596;46.826;8.650;2022-11-15T02:10:02;2.27;;;1.80;;
11084;SDS011;5596;46.826;8.650;2022-11-15T02:12:52;4.60;;;1.50;;
11084;SDS011;5596;46.826;8.650;2022-11-15T02:15:40;2.13;;;1.47;;
11084;SDS011;5596;46.826;8.650;2022-11-15T02:18:37;4.30;;;1.53;;
11084;SDS011;5596;46.826;8.650;2022-11-15T02:21:32;2.80;;;1.47;;
11084;SDS011;5596;46.826;8.650;2022-11-15T02:24:39;1.50;;;1.40;;
11084;SDS011;5596;46.826;8.650;2022-11-15T02:31:11;2.33;;;1.70;;
11084;SDS011;5596;46.826;8.650;2022-11-15T02:34:05;2.13;;;1.63;;
11084;SDS011;5596;46.826;8.650;2022-11-15T02:36:59;2.80;;;1.70;;
11084;SDS011;5596;46.826;8.650;2022-11-15T02:39:54;2.10;;;1.50;;
11084;SDS011;5596;46.826;8.650;2022-11-15T02:42:49;2.70;;;1.50;;
11084;SDS011;5596;46.826;8.650;2022-11-15T02:46:00;2.07;;;1.67;;
11084;SDS011;5596;46.826;8.650;2022-11-15T02:48:54;3.97;;;2.03;;
11084;SDS011;5596;46.826;8.650;2022-11-15T02:51:40;3.33;;;1.80;;
11084;SDS011;5596;46.826;8.650;2022-11-15T02:54:29;2.03;;;1.70;;
11084;SDS011;5596;46.826;8.650;2022-11-15T02:57:16;2.67;;;1.57;;
11084;SDS011;5596;46.826;8.650;2022-11-15T03:00:09;2.07;;;1.60;;
11084;SDS011;5596;46.826;8.650;2022-11-15T03:03:05;2.57;;;1.60;;
11084;SDS011;5596;46.826;8.650;2022-11-15T03:06:03;3.33;;;1.60;;
11084;SDS011;5596;46.826;8.650;2022-11-15T03:09:02;1.80;;;1.50;;
11084;SDS011;5596;46.826;8.650;2022-11-15T03:11:51;4.07;;;1.50;;
11084;SDS011;5596;46.826;8.650;2022-11-15T03:14:46;1.60;;;1.37;;
11084;SDS011;5596;46.826;8.650;2022-11-15T03:17:41;1.70;;;1.60;;
11084;SDS011;5596;46.826;8.650;2022-11-15T03:20:32;5.53;;;1.73;;
11084;SDS011;5596;46.826;8.650;2022-11-15T03:23:22;2.57;;;1.93;;
11084;SDS011;5596;46.826;8.650;2022-11-15T03:26:11;4.63;;;1.87;;
11084;SDS011;5596;46.826;8.650;2022-11-15T03:29:00;2.73;;;1.70;;
11084;SDS011;5596;46.826;8.650;2022-11-15T03:31:51;2.23;;;1.70;;
11084;SDS011;5596;46.826;8.650;2022-11-15T03:34:43;3.60;;;1.60;;
11084;SDS011;5596;46.826;8.650;2022-11-15T03:37:34;3.17;;;1.80;;
11084;SDS011;5596;46.826;8.650;2022-11-15T03:40:25;3.80;;;2.77;;
11084;SDS011;5596;46.826;8.650;2022-11-15T03:43:22;2.20;;;2.00;;
11084;SDS011;5596;46.826;8.650;2022-11-15T03:46:13;4.60;;;2.23;;
11084;SDS011;5596;46.826;8.650;2022-11-15T03:49:03;5.03;;;2.33;;
11084;SDS011;5596;46.826;8.650;2022-11-15T03:51:55;7.37;;;2.00;;
11084;SDS011;5596;46.826;8.650;2022-11-15T03:54:52;3.80;;;2.17;;
11084;SDS011;5596;46.826;8.650;2022-11-15T03:57:41;3.10;;;1.93;;
11084;SDS011;5596;46.826;8.650;2022-11-15T04:00:26;2.37;;;1.80;;
11084;SDS011;5596;46.826;8.650;2022-11-15T04:03:13;4.10;;;2.00;;
11084;SDS011;5596;46.826;8.650;2022-11-15T04:05:58;4.93;;;2.10;;
11084;SDS011;5596;46.826;8.650;2022-11-15T04:08:44;2.73;;;2.20;;
11084;SDS011;5596;46.826;8.650;2022-11-15T04:11:29;4.67;;;2.07;;
11084;SDS011;5596;46.826;8.650;2022-11-15T04:14:17;3.73;;;1.83;;
11084;SDS011;5596;46.826;8.650;2022-11-15T04:17:02;4.83;;;2.10;;
11084;SDS011;5596;46.826;8.650;2022-11-15T04:19:49;5.73;;;1.73;;
11084;SDS011;5596;46.826;8.650;2022-11-15T04:23:02;3.23;;;2.20;;
11084;SDS011;5596;46.826;8.650;2022-11-15T04:26:07;2.77;;;2.30;;
11084;SDS011;5596;46.826;8.650;2022-11-15T04:28:56;3.83;;;2.20;;
11084;SDS011;5596;46.826;8.650;2022-11-15T04:32:01;3.43;;;1.97;;
11084;SDS011;5596;46.826;8.650;2022-11-15T04:34:48;4.03;;;2.23;;
11084;SDS011;5596;46.826;8.650;2022-11-15T04:37:33;7.47;;;2.30;;
11084;SDS011;5596;46.826;8.650;2022-11-15T04:40:19;4.83;;;2.20;;
11084;SDS011;5596;46.826;8.650;2022-11-15T04:43:04;4.07;;;2.20;;
11084;SDS011;5596;46.826;8.650;2022-11-15T04:45:50;4.13;;;2.00;;
11084;SDS011;5596;46.826;8.650;2022-11-15T04:48:37;3.40;;;2.20;;
11084;SDS011;5596;46.826;8.650;2022-11-15T04:51:23;5.67;;;2.30;;
11084;SDS011;5596;46.826;8.650;2022-11-15T04:54:08;3.63;;;2.10;;
11084;SDS011;5596;46.826;8.650;2022-11-15T04:56:54;4.07;;;2.03;;
11084;SDS011;5596;46.826;8.650;2022-11-15T04:59:40;3.17;;;1.90;;
11084;SDS011;5596;46.826;8.650;2022-11-15T05:02:26;3.03;;;2.40;;
11084;SDS011;5596;46.826;8.650;2022-11-15T05:05:33;6.33;;;2.10;;
11084;SDS011;5596;46.826;8.650;2022-11-15T05:08:18;4.60;;;2.10;;
11084;SDS011;5596;46.826;8.650;2022-11-15T05:11:03;2.80;;;2.20;;
11084;SDS011;5596;46.826;8.650;2022-11-15T05:13:49;3.70;;;1.70;;
11084;SDS011;5596;46.826;8.650;2022-11-15T05:16:35;2.77;;;2.00;;
11084;SDS011;5596;46.826;8.650;2022-11-15T05:19:21;2.27;;;1.97;;
11084;SDS011;5596;46.826;8.650;2022-11-15T05:22:09;6.63;;;2.20;;
11084;SDS011;5596;46.826;8.650;2022-11-15T05:24:54;5.27;;;2.33;;
11084;SDS011;5596;46.826;8.650;2022-11-15T05:27:40;5.27;;;3.00;;
11084;SDS011;5596;46.826;8.650;2022-11-15T05:30:25;6.40;;;3.50;;
11084;SDS011;5596;46.826;8.650;2022-11-15T05:33:11;3.73;;;2.37;;
11084;SDS011;5596;46.826;8.650;2022-11-15T05:35:57;6.37;;;2.50;;
11084;SDS011;5596;46.826;8.650;2022-11-15T05:38:49;4.17;;;2.90;;
11084;SDS011;5596;46.826;8.650;2022-11-15T05:41:36;6.97;;;5.10;;
11084;SDS011;5596;46.826;8.650;2022-11-15T05:44:25;5.63;;;3.57;;
11084;SDS011;5596;46.826;8.650;2022-11-15T05:47:12;5.67;;;4.67;;
11084;SDS011;5596;46.826;8.650;2022-11-15T05:50:01;7.23;;;4.80;;
11084;SDS011;5596;46.826;8.650;2022-11-15T05:52:47;6.60;;;4.10;;
11084;SDS011;5596;46.826;8.650;2022-11-15T05:55:34;6.23;;;4.83;;
11084;SDS011;5596;46.826;8.650;2022-11-15T05:58:20;5.53;;;4.10;;
11084;SDS011;5596;46.826;8.650;2022-11-15T06:01:06;6.30;;;4.03;;
11084;SDS011;5596;46.826;8.650;2022-11-15T06:03:52;5.10;;;4.00;;
11084;SDS011;5596;46.826;8.650;2022-11-15T06:06:38;6.97;;;3.97;;
11084;SDS011;5596;46.826;8.650;2022-11-15T06:09:24;6.97;;;4.30;;
11084;SDS011;5596;46.826;8.650;2022-11-15T06:12:10;6.90;;;5.37;;
11084;SDS011;5596;46.826;8.650;2022-11-15T06:14:56;6.40;;;4.30;;
11084;SDS011;5596;46.826;8.650;2022-11-15T06:17:41;5.37;;;4.00;;
11084;SDS011;5596;46.826;8.650;2022-11-15T06:20:27;5.83;;;3.47;;
11084;SDS011;5596;46.826;8.650;2022-11-15T06:23:14;6.37;;;3.20;;
11084;SDS011;5596;46.826;8.650;2022-11-15T06:26:00;4.30;;;3.47;;
11084;SDS011;5596;46.826;8.650;2022-11-15T06:28:48;11.57;;;5.93;;
11084;SDS011;5596;46.826;8.650;2022-11-15T06:31:34;8.33;;;5.00;;
11084;SDS011;5596;46.826;8.650;2022-11-15T06:34:20;8.07;;;5.90;;
11084;SDS011;5596;46.826;8.650;2022-11-15T06:37:05;44.90;;;28.33;;
11084;SDS011;5596;46.826;8.650;2022-11-15T06:39:50;26.93;;;17.73;;
11084;SDS011;5596;46.826;8.650;2022-11-15T06:42:36;25.57;;;16.97;;
11084;SDS011;5596;46.826;8.650;2022-11-15T06:45:22;24.23;;;15.53;;
11084;SDS011;5596;46.826;8.650;2022-11-15T06:48:08;18.97;;;12.33;;
11084;SDS011;5596;46.826;8.650;2022-11-15T06:50:54;23.60;;;15.80;;
11084;SDS011;5596;46.826;8.650;2022-11-15T06:53:40;24.83;;;15.53;;
11084;SDS011;5596;46.826;8.650;2022-11-15T06:56:26;20.33;;;14.07;;
11084;SDS011;5596;46.826;8.650;2022-11-15T06:59:12;28.63;;;17.37;;
11084;SDS011;5596;46.826;8.650;2022-11-15T07:01:59;22.83;;;15.57;;
11084;SDS011;5596;46.826;8.650;2022-11-15T07:04:45;25.40;;;14.73;;
11084;SDS011;5596;46.826;8.650;2022-11-15T07:07:30;22.70;;;13.73;;
11084;SDS011;5596;46.826;8.650;2022-11-15T07:10:15;18.87;;;13.40;;
11084;SDS011;5596;46.826;8.650;2022-11-15T07:13:02;19.50;;;13.27;;
11084;SDS011;5596;46.826;8.650;2022-11-15T07:15:47;19.07;;;13.40;;
11084;SDS011;5596;46.826;8.650;2022-11-15T07:18:35;19.53;;;12.57;;
11084;SDS011;5596;46.826;8.650;2022-11-15T07:21:22;19.47;;;11.47;;
11084;SDS011;5596;46.826;8.650;2022-11-15T07:24:08;15.17;;;11.20;;
11084;SDS011;5596;46.826;8.650;2022-11-15T07:26:54;16.80;;;11.13;;
11084;SDS011;5596;46.826;8.650;2022-11-15T07:29:40;18.10;;;10.67;;
11084;SDS011;5596;46.826;8.650;2022-11-15T07:32:26;16.60;;;10.37;;
11084;SDS011;5596;46.826;8.650;2022-11-15T07:35:14;13.77;;;9.43;;
11084;SDS011;5596;46.826;8.650;2022-11-15T07:38:00;12.57;;;8.73;;
11084;SDS011;5596;46.826;8.650;2022-11-15T07:40:55;13.40;;;8.53;;
11084;SDS011;5596;46.826;8.650;2022-11-15T07:43:41;12.03;;;8.77;;
11084;SDS011;5596;46.826;8.650;2022-11-15T07:46:26;13.57;;;9.23;;
11084;SDS011;5596;46.826;8.650;2022-11-15T07:49:12;15.57;;;9.17;;
11084;SDS011;5596;46.826;8.650;2022-11-15T07:51:58;22.17;;;17.70;;
11084;SDS011;5596;46.826;8.650;2022-11-15T07:54:44;20.40;;;15.50;;
11084;SDS011;5596;46.826;8.650;2022-11-15T07:57:29;15.40;;;10.90;;
11084;SDS011;5596;46.826;8.650;2022-11-15T08:00:16;17.00;;;10.97;;
11084;SDS011;5596;46.826;8.650;2022-11-15T08:03:03;12.73;;;9.63;;
11084;SDS011;5596;46.826;8.650;2022-11-15T08:05:50;13.17;;;9.50;;
11084;SDS011;5596;46.826;8.650;2022-11-15T08:08:37;9.47;;;7.37;;
11084;SDS011;5596;46.826;8.650;2022-11-15T08:11:23;12.97;;;8.37;;
11084;SDS011;5596;46.826;8.650;2022-11-15T08:14:08;8.20;;;4.80;;
11084;SDS011;5596;46.826;8.650;2022-11-15T08:16:54;8.90;;;5.07;;
11084;SDS011;5596;46.826;8.650;2022-11-15T08:19:39;10.83;;;7.43;;
11084;SDS011;5596;46.826;8.650;2022-11-15T08:22:25;7.10;;;5.43;;
11084;SDS011;5596;46.826;8.650;2022-11-15T08:25:12;9.47;;;4.70;;
11084;SDS011;5596;46.826;8.650;2022-11-15T08:27:58;8.13;;;3.90;;
11084;SDS011;5596;46.826;8.650;2022-11-15T08:30:45;6.47;;;4.10;;
11084;SDS011;5596;46.826;8.650;2022-11-15T08:33:31;5.23;;;2.57;;
11084;SDS011;5596;46.826;8.650;2022-11-15T08:36:17;6.37;;;3.00;;
11084;SDS011;5596;46.826;8.650;2022-11-15T08:39:03;9.70;;;3.67;;
11084;SDS011;5596;46.826;8.650;2022-11-15T08:41:51;4.90;;;3.23;;
11084;SDS011;5596;46.826;8.650;2022-11-15T08:44:37;4.73;;;3.03;;
11084;SDS011;5596;46.826;8.650;2022-11-15T08:47:22;5.90;;;2.70;;
11084;SDS011;5596;46.826;8.650;2022-11-15T08:50:08;3.90;;;2.50;;
11084;SDS011;5596;46.826;8.650;2022-11-15T08:52:54;4.03;;;3.03;;
11084;SDS011;5596;46.826;8.650;2022-11-15T08:55:39;3.83;;;2.73;;
11084;SDS011;5596;46.826;8.650;2022-11-15T08:58:27;6.67;;;2.40;;
11084;SDS011;5596;46.826;8.650;2022-11-15T09:01:14;5.37;;;2.53;;
11084;SDS011;5596;46.826;8.650;2022-11-15T09:04:02;3.80;;;2.63;;
11084;SDS011;5596;46.826;8.650;2022-11-15T09:06:48;4.33;;;2.67;;
11084;SDS011;5596;46.826;8.650;2022-11-15T09:09:34;6.53;;;2.80;;
11084;SDS011;5596;46.826;8.650;2022-11-15T09:12:19;6.90;;;2.63;;
11084;SDS011;5596;46.826;8.650;2022-11-15T09:15:07;7.40;;;2.50;;
11084;SDS011;5596;46.826;8.650;2022-11-15T09:17:53;5.50;;;2.83;;
11084;SDS011;5596;46.826;8.650;2022-11-15T09:20:38;5.87;;;2.30;;
11084;SDS011;5596;46.826;8.650;2022-11-15T09:23:24;4.97;;;2.50;;
11084;SDS011;5596;46.826;8.650;2022-11-15T09:26:10;2.90;;;2.47;;
11084;SDS011;5596;46.826;8.650;2022-11-15T09:28:55;3.77;;;2.47;;
11084;SDS011;5596;46.826;8.650;2022-11-15T09:31:42;8.70;;;2.83;;
11084;SDS011;5596;46.826;8.650;2022-11-15T09:34:28;3.57;;;2.67;;
11084;SDS011;5596;46.826;8.650;2022-11-15T09:37:13;7.77;;;2.83;;
11084;SDS011;5596;46.826;8.650;2022-11-15T09:39:59;5.27;;;2.63;;
11084;SDS011;5596;46.826;8.650;2022-11-15T09:42:53;5.47;;;2.90;;
11084;SDS011;5596;46.826;8.650;2022-11-15T09:45:52;8.03;;;2.80;;
11084;SDS011;5596;46.826;8.650;2022-11-15T09:48:55;4.73;;;2.80;;
11084;SDS011;5596;46.826;8.650;2022-11-15T09:51:43;4.37;;;2.70;;
11084;SDS011;5596;46.826;8.650;2022-11-15T09:54:25;7.23;;;2.80;;
11084;SDS011;5596;46.826;8.650;2022-11-15T09:56:55;3.43;;;2.60;;
11084;SDS011;5596;46.826;8.650;2022-11-15T09:59:34;6.17;;;3.03;;
11084;SDS011;5596;46.826;8.650;2022-11-15T10:02:12;3.37;;;2.40;;
11084;SDS011;5596;46.826;8.650;2022-11-15T10:04:51;2.63;;;2.27;;
11084;SDS011;5596;46.826;8.650;2022-11-15T10:07:21;3.87;;;2.47;;
11084;SDS011;5596;46.826;8.650;2022-11-15T10:09:54;4.07;;;2.87;;
11084;SDS011;5596;46.826;8.650;2022-11-15T10:12:27;4.07;;;2.57;;
11084;SDS011;5596;46.826;8.650;2022-11-15T10:14:55;4.67;;;2.70;;
11084;SDS011;5596;46.826;8.650;2022-11-15T10:17:40;4.83;;;2.40;;
11084;SDS011;5596;46.826;8.650;2022-11-15T10:20:23;3.73;;;2.43;;
11084;SDS011;5596;46.826;8.650;2022-11-15T10:22:52;6.40;;;3.57;;
11084;SDS011;5596;46.826;8.650;2022-11-15T10:25:23;9.53;;;3.20;;
11084;SDS011;5596;46.826;8.650;2022-11-15T10:27:53;7.37;;;2.77;;
11084;SDS011;5596;46.826;8.650;2022-11-15T10:30:22;5.13;;;2.73;;
11084;SDS011;5596;46.826;8.650;2022-11-15T10:32:56;3.60;;;2.10;;
11084;SDS011;5596;46.826;8.650;2022-11-15T10:35:25;4.03;;;2.63;;
11084;SDS011;5596;46.826;8.650;2022-11-15T10:38:03;6.33;;;2.40;;
11084;SDS011;5596;46.826;8.650;2022-11-15T10:40:32;6.80;;;2.90;;
11084;SDS011;5596;46.826;8.650;2022-11-15T10:43:16;6.17;;;3.37;;
11084;SDS011;5596;46.826;8.650;2022-11-15T10:45:44;2.97;;;2.30;;
11084;SDS011;5596;46.826;8.650;2022-11-15T10:48:22;4.57;;;2.30;;
11084;SDS011;5596;46.826;8.650;2022-11-15T10:50:53;3.57;;;2.37;;
11084;SDS011;5596;46.826;8.650;2022-11-15T10:53:22;2.80;;;2.30;;
11084;SDS011;5596;46.826;8.650;2022-11-15T10:55:54;4.73;;;2.67;;
11084;SDS011;5596;46.826;8.650;2022-11-15T10:58:29;5.03;;;2.33;;
11084;SDS011;5596;46.826;8.650;2022-11-15T11:01:11;4.60;;;2.40;;
11084;SDS011;5596;46.826;8.650;2022-11-15T11:03:42;3.03;;;2.50;;
11084;SDS011;5596;46.826;8.650;2022-11-15T11:06:12;6.43;;;2.93;;
11084;SDS011;5596;46.826;8.650;2022-11-15T11:08:52;4.60;;;2.27;;
11084;SDS011;5596;46.826;8.650;2022-11-15T11:11:22;5.13;;;2.90;;
11084;SDS011;5596;46.826;8.650;2022-11-15T11:13:52;6.83;;;2.50;;
11084;SDS011;5596;46.826;8.650;2022-11-15T11:16:34;5.70;;;2.80;;
11084;SDS011;5596;46.826;8.650;2022-11-15T11:19:15;3.90;;;2.50;;
11084;SDS011;5596;46.826;8.650;2022-11-15T11:21:57;2.87;;;2.20;;
11084;SDS011;5596;46.826;8.650;2022-11-15T11:24:34;5.20;;;2.30;;
11084;SDS011;5596;46.826;8.650;2022-11-15T11:27:17;5.63;;;2.37;;
11084;SDS011;5596;46.826;8.650;2022-11-15T11:29:55;5.03;;;2.77;;
11084;SDS011;5596;46.826;8.650;2022-11-15T11:35:37;4.13;;;2.40;;
11084;SDS011;5596;46.826;8.650;2022-11-15T11:38:23;3.50;;;2.40;;
11084;SDS011;5596;46.826;8.650;2022-11-15T11:41:04;6.13;;;2.73;;
11084;SDS011;5596;46.826;8.650;2022-11-15T11:43:41;4.33;;;2.70;;
11084;SDS011;5596;46.826;8.650;2022-11-15T11:46:25;3.23;;;2.40;;
11084;SDS011;5596;46.826;8.650;2022-11-15T11:49:12;5.47;;;2.63;;
11084;SDS011;5596;46.826;8.650;2022-11-15T11:51:45;5.30;;;2.50;;
11084;SDS011;5596;46.826;8.650;2022-11-15T11:54:19;4.13;;;2.33;;
11084;SDS011;5596;46.826;8.650;2022-11-15T11:56:50;4.60;;;2.50;;
11084;SDS011;5596;46.826;8.650;2022-11-15T11:59:20;4.67;;;2.37;;
11084;SDS011;5596;46.826;8.650;2022-11-15T12:01:55;4.73;;;2.53;;
11084;SDS011;5596;46.826;8.650;2022-11-15T12:04:27;4.47;;;2.37;;
11084;SDS011;5596;46.826;8.650;2022-11-15T12:06:58;7.30;;;2.60;;
11084;SDS011;5596;46.826;8.650;2022-11-15T12:09:32;3.40;;;2.63;;
11084;SDS011;5596;46.826;8.650;2022-11-15T12:12:06;3.90;;;2.57;;
11084;SDS011;5596;46.826;8.650;2022-11-15T12:14:40;3.37;;;2.17;;
11084;SDS011;5596;46.826;8.650;2022-11-15T12:17:12;3.57;;;2.40;;
11084;SDS011;5596;46.826;8.650;2022-11-15T12:19:41;5.40;;;2.40;;
11084;SDS011;5596;46.826;8.650;2022-11-15T12:22:10;8.47;;;2.40;;
11084;SDS011;5596;46.826;8.650;2022-11-15T12:24:48;3.30;;;2.40;;
11084;SDS011;5596;46.826;8.650;2022-11-15T12:27:31;2.70;;;2.00;;
11084;SDS011;5596;46.826;8.650;2022-11-15T12:30:03;3.60;;;2.20;;
11084;SDS011;5596;46.826;8.650;2022-11-15T12:32:36;4.97;;;2.40;;
11084;SDS011;5596;46.826;8.650;2022-11-15T12:35:20;3.77;;;2.50;;
11084;SDS011;5596;46.826;8.650;2022-11-15T12:37:51;3.07;;;2.40;;
11084;SDS011;5596;46.826;8.650;2022-11-15T12:40:24;3.27;;;2.50;;
11084;SDS011;5596;46.826;8.650;2022-11-15T12:42:58;5.53;;;2.40;;
11084;SDS011;5596;46.826;8.650;2022-11-15T12:45:40;3.03;;;2.30;;
11084;SDS011;5596;46.826;8.650;2022-11-15T12:51:22;5.77;;;2.70;;
11084;SDS011;5596;46.826;8.650;2022-11-15T12:54:50;2.50;;;2.30;;
11084;SDS011;5596;46.826;8.650;2022-11-15T12:57:38;5.20;;;3.30;;
11084;SDS011;5596;46.826;8.650;2022-11-15T13:03:24;5.00;;;2.77;;
11084;SDS011;5596;46.826;8.650;2022-11-15T13:05:55;4.47;;;2.57;;
11084;SDS011;5596;46.826;8.650;2022-11-15T13:08:44;11.53;;;4.10;;
11084;SDS011;5596;46.826;8.650;2022-11-15T13:17:25;6.83;;;2.80;;
11084;SDS011;5596;46.826;8.650;2022-11-15T13:20:11;6.67;;;2.93;;
11084;SDS011;5596;46.826;8.650;2022-11-15T13:22:48;5.97;;;2.70;;
11084;SDS011;5596;46.826;8.650;2022-11-15T13:25:27;4.60;;;2.50;;
11084;SDS011;5596;46.826;8.650;2022-11-15T13:28:18;4.40;;;2.60;;
11084;SDS011;5596;46.826;8.650;2022-11-15T13:30:54;3.50;;;2.57;;
11084;SDS011;5596;46.826;8.650;2022-11-15T13:33:24;6.03;;;2.90;;
11084;SDS011;5596;46.826;8.650;2022-11-15T13:35:55;5.63;;;3.03;;
11084;SDS011;5596;46.826;8.650;2022-11-15T13:38:26;5.37;;;3.20;;
11084;SDS011;5596;46.826;8.650;2022-11-15T13:40:55;6.40;;;3.33;;
11084;SDS011;5596;46.826;8.650;2022-11-15T13:43:26;6.73;;;3.63;;
11084;SDS011;5596;46.826;8.650;2022-11-15T13:46:10;17.63;;;8.67;;
11084;SDS011;5596;46.826;8.650;2022-11-15T13:48:39;12.90;;;5.83;;
11084;SDS011;5596;46.826;8.650;2022-11-15T13:51:08;6.03;;;3.50;;
11084;SDS011;5596;46.826;8.650;2022-11-15T13:53:42;11.07;;;4.27;;
11084;SDS011;5596;46.826;8.650;2022-11-15T13:56:15;6.23;;;3.60;;
11084;SDS011;5596;46.826;8.650;2022-11-15T13:58:43;4.33;;;2.80;;
11084;SDS011;5596;46.826;8.650;2022-11-15T14:01:15;4.70;;;2.43;;
11084;SDS011;5596;46.826;8.650;2022-11-15T14:03:53;4.87;;;2.40;;
11084;SDS011;5596;46.826;8.650;2022-11-15T14:06:24;2.90;;;2.50;;
11084;SDS011;5596;46.826;8.650;2022-11-15T14:09:00;5.30;;;2.33;;
11084;SDS011;5596;46.826;8.650;2022-11-15T14:11:52;4.73;;;2.43;;
11084;SDS011;5596;46.826;8.650;2022-11-15T14:14:21;5.57;;;2.50;;
11084;SDS011;5596;46.826;8.650;2022-11-15T14:16:52;2.80;;;2.60;;
11084;SDS011;5596;46.826;8.650;2022-11-15T14:22:11;5.67;;;2.70;;
11084;SDS011;5596;46.826;8.650;2022-11-15T14:24:46;7.13;;;2.60;;
11084;SDS011;5596;46.826;8.650;2022-11-15T14:27:31;4.80;;;2.67;;
11084;SDS011;5596;46.826;8.650;2022-11-15T14:29:58;5.17;;;2.47;;
11084;SDS011;5596;46.826;8.650;2022-11-15T14:32:27;4.40;;;2.60;;
11084;SDS011;5596;46.826;8.650;2022-11-15T14:34:56;6.00;;;3.70;;
11084;SDS011;5596;46.826;8.650;2022-11-15T14:37:25;5.07;;;2.70;;
11084;SDS011;5596;46.826;8.650;2022-11-15T14:39:54;2.87;;;2.37;;
11084;SDS011;5596;46.826;8.650;2022-11-15T14:42:22;4.07;;;2.60;;
11084;SDS011;5596;46.826;8.650;2022-11-15T14:44:50;4.13;;;2.60;;
11084;SDS011;5596;46.826;8.650;2022-11-15T14:47:17;5.33;;;2.70;;
11084;SDS011;5596;46.826;8.650;2022-11-15T14:49:47;6.23;;;3.60;;
11084;SDS011;5596;46.826;8.650;2022-11-15T14:52:21;8.47;;;3.60;;
11084;SDS011;5596;46.826;8.650;2022-11-15T14:54:51;4.77;;;3.30;;
11084;SDS011;5596;46.826;8.650;2022-11-15T14:57:18;7.93;;;3.17;;
11084;SDS011;5596;46.826;8.650;2022-11-15T14:59:45;6.83;;;3.17;;
11084;SDS011;5596;46.826;8.650;2022-11-15T15:02:16;9.83;;;3.30;;
11084;SDS011;5596;46.826;8.650;2022-11-15T15:04:46;4.67;;;2.30;;
11084;SDS011;5596;46.826;8.650;2022-11-15T15:07:13;4.80;;;2.30;;
11084;SDS011;5596;46.826;8.650;2022-11-15T15:09:41;3.40;;;1.87;;
11084;SDS011;5596;46.826;8.650;2022-11-15T15:12:13;6.03;;;2.30;;
11084;SDS011;5596;46.826;8.650;2022-11-15T15:14:43;3.60;;;2.07;;
11084;SDS011;5596;46.826;8.650;2022-11-15T15:17:10;8.40;;;3.30;;
11084;SDS011;5596;46.826;8.650;2022-11-15T15:19:37;3.33;;;1.80;;
11084;SDS011;5596;46.826;8.650;2022-11-15T15:22:10;2.87;;;2.10;;
11084;SDS011;5596;46.826;8.650;2022-11-15T15:24:40;5.07;;;1.90;;
11084;SDS011;5596;46.826;8.650;2022-11-15T15:27:08;6.77;;;3.30;;
11084;SDS011;5596;46.826;8.650;2022-11-15T15:29:35;3.77;;;2.13;;
11084;SDS011;5596;46.826;8.650;2022-11-15T15:32:03;7.93;;;4.50;;
11084;SDS011;5596;46.826;8.650;2022-11-15T15:34:31;5.23;;;2.63;;
11084;SDS011;5596;46.826;8.650;2022-11-15T15:39:49;4.13;;;2.13;;
11084;SDS011;5596;46.826;8.650;2022-11-15T15:42:16;5.90;;;4.40;;
11084;SDS011;5596;46.826;8.650;2022-11-15T15:44:44;2.93;;;2.10;;
11084;SDS011;5596;46.826;8.650;2022-11-15T15:47:11;1.90;;;1.30;;
11084;SDS011;5596;46.826;8.650;2022-11-15T15:49:39;3.97;;;1.80;;
11084;SDS011;5596;46.826;8.650;2022-11-15T15:52:06;4.70;;;2.77;;
11084;SDS011;5596;46.826;8.650;2022-11-15T15:54:34;6.37;;;3.40;;
11084;SDS011;5596;46.826;8.650;2022-11-15T15:57:02;9.67;;;3.87;;
11084;SDS011;5596;46.826;8.650;2022-11-15T15:59:29;5.97;;;3.30;;
11084;SDS011;5596;46.826;8.650;2022-11-15T16:01:56;6.20;;;3.13;;
11084;SDS011;5596;46.826;8.650;2022-11-15T16:04:23;10.47;;;4.07;;
11084;SDS011;5596;46.826;8.650;2022-11-15T16:06:51;12.40;;;3.10;;
11084;SDS011;5596;46.826;8.650;2022-11-15T16:09:20;10.47;;;2.87;;
11084;SDS011;5596;46.826;8.650;2022-11-15T16:12:09;6.57;;;3.17;;
11084;SDS011;5596;46.826;8.650;2022-11-15T16:14:36;5.33;;;2.70;;
11084;SDS011;5596;46.826;8.650;2022-11-15T16:17:03;1.87;;;1.23;;
11084;SDS011;5596;46.826;8.650;2022-11-15T16:19:32;0.80;;;0.73;;
11084;SDS011;5596;46.826;8.650;2022-11-15T16:21:59;0.50;;;0.50;;
11084;SDS011;5596;46.826;8.650;2022-11-15T16:24:26;1.37;;;0.90;;
11084;SDS011;5596;46.826;8.650;2022-11-15T16:26:53;0.50;;;0.50;;
11084;SDS011;5596;46.826;8.650;2022-11-15T16:29:21;0.83;;;0.60;;
11084;SDS011;5596;46.826;8.650;2022-11-15T16:31:48;0.50;;;0.50;;
11084;SDS011;5596;46.826;8.650;2022-11-15T16:34:15;0.50;;;0.50;;
11084;SDS011;5596;46.826;8.650;2022-11-15T16:36:42;0.60;;;0.60;;
11084;SDS011;5596;46.826;8.650;2022-11-15T16:39:10;0.50;;;0.50;;
11084;SDS011;5596;46.826;8.650;2022-11-15T16:41:40;0.83;;;0.60;;
11084;SDS011;5596;46.826;8.650;2022-11-15T16:44:11;0.60;;;0.60;;
11084;SDS011;5596;46.826;8.650;2022-11-15T16:46:41;0.50;;;0.50;;
11084;SDS011;5596;46.826;8.650;2022-11-15T16:49:12;0.40;;;0.40;;
11084;SDS011;5596;46.826;8.650;2022-11-15T16:51:39;0.50;;;0.50;;